sensor_id;sensor_type;location;lat;lon;timestamp;pressure;altitude;pressure_sealevel;temperature;humidity
72558;BME280;60583;50.094;8.748;2022-08-19T00:00:23;100088.09;;;22.25;60.77
72558;BME280;60583;50.094;8.748;2022-08-19T00:02:48;100091.88;;;22.24;60.64
72558;BME280;60583;50.094;8.748;2022-08-19T00:05:14;100104.91;;;22.27;60.74
72558;BME280;60583;50.094;8.748;2022-08-19T00:07:41;100112.53;;;22.25;60.88
72558;BME280;60583;50.094;8.748;2022-08-19T00:10:09;100105.47;;;22.24;60.87
72558;BME280;60583;50.094;8.748;2022-08-19T00:12:35;100094.59;;;22.24;60.93
72558;BME280;60583;50.094;8.748;2022-08-19T00:15:04;100084.81;;;22.23;60.96
72558;BME280;60583;50.094;8.748;2022-08-19T00:17:30;100086.75;;;22.22;60.91
72558;BME280;60583;50.094;8.748;2022-08-19T00:19:55;100082.72;;;22.15;61.22
72558;BME280;60583;50.094;8.748;2022-08-19T00:22:21;100083.25;;;22.17;61.14
72558;BME280;60583;50.094;8.748;2022-08-19T00:24:46;100070.00;;;22.05;61.33
72558;BME280;60583;50.094;8.748;2022-08-19T00:27:12;100079.44;;;22.13;61.37
72558;BME280;60583;50.094;8.748;2022-08-19T00:29:37;100075.13;;;22.12;61.35
72558;BME280;60583;50.094;8.748;2022-08-19T00:32:04;100078.91;;;22.16;61.28
72558;BME280;60583;50.094;8.748;2022-08-19T00:34:29;100063.72;;;22.15;61.23
72558;BME280;60583;50.094;8.748;2022-08-19T00:36:56;100075.66;;;22.14;61.44
72558;BME280;60583;50.094;8.748;2022-08-19T00:39:21;100064.28;;;22.07;61.80
72558;BME280;60583;50.094;8.748;2022-08-19T00:41:48;100063.75;;;22.10;61.79
72558;BME280;60583;50.094;8.748;2022-08-19T00:44:22;100058.31;;;22.10;61.62
72558;BME280;60583;50.094;8.748;2022-08-19T00:46:50;100060.22;;;22.09;61.64
72558;BME280;60583;50.094;8.748;2022-08-19T00:49:31;100052.88;;;22.10;61.74
72558;BME280;60583;50.094;8.748;2022-08-19T00:52:02;100063.22;;;22.03;61.90
72558;BME280;60583;50.094;8.748;2022-08-19T00:54:30;100053.44;;;22.07;61.73
72558;BME280;60583;50.094;8.748;2022-08-19T00:56:58;100046.91;;;22.03;62.03
72558;BME280;60583;50.094;8.748;2022-08-19T00:59:24;100048.56;;;22.04;61.95
72558;BME280;60583;50.094;8.748;2022-08-19T01:01:50;100049.13;;;22.01;62.23
72558;BME280;60583;50.094;8.748;2022-08-19T01:04:16;100046.91;;;22.03;62.22
72558;BME280;60583;50.094;8.748;2022-08-19T01:06:41;100047.19;;;22.06;62.65
72558;BME280;60583;50.094;8.748;2022-08-19T01:09:08;100043.63;;;22.11;62.01
72558;BME280;60583;50.094;8.748;2022-08-19T01:11:36;100036.56;;;22.10;62.01
72558;BME280;60583;50.094;8.748;2022-08-19T01:14:03;100049.34;;;22.09;62.00
72558;BME280;60583;50.094;8.748;2022-08-19T01:16:32;100030.41;;;21.99;62.17
72558;BME280;60583;50.094;8.748;2022-08-19T01:18:58;100038.03;;;21.97;62.29
72558;BME280;60583;50.094;8.748;2022-08-19T01:21:42;100038.81;;;21.98;62.42
72558;BME280;60583;50.094;8.748;2022-08-19T01:24:11;100050.22;;;22.00;62.33
72558;BME280;60583;50.094;8.748;2022-08-19T01:26:41;100045.88;;;21.99;62.44
72558;BME280;60583;50.094;8.748;2022-08-19T01:29:08;100048.56;;;22.04;62.37
72558;BME280;60583;50.094;8.748;2022-08-19T01:31:34;100037.94;;;22.07;62.19
72558;BME280;60583;50.094;8.748;2022-08-19T01:34:02;100040.72;;;22.02;62.37
72558;BME280;60583;50.094;8.748;2022-08-19T01:36:43;100038.53;;;21.99;62.47
72558;BME280;60583;50.094;8.748;2022-08-19T01:39:13;100027.97;;;21.93;62.69
72558;BME280;60583;50.094;8.748;2022-08-19T01:41:38;100038.03;;;21.97;62.50
72558;BME280;60583;50.094;8.748;2022-08-19T01:44:05;100039.91;;;21.97;62.64
72558;BME280;60583;50.094;8.748;2022-08-19T01:46:32;100041.00;;;21.96;62.63
72558;BME280;60583;50.094;8.748;2022-08-19T01:48:57;100039.91;;;21.97;62.59
72558;BME280;60583;50.094;8.748;2022-08-19T01:51:23;100035.56;;;21.96;63.13
72558;BME280;60583;50.094;8.748;2022-08-19T01:53:50;100033.97;;;21.95;62.74
72558;BME280;60583;50.094;8.748;2022-08-19T01:56:17;100036.38;;;21.96;62.66
72558;BME280;60583;50.094;8.748;2022-08-19T01:58:46;100033.41;;;21.93;62.88
72558;BME280;60583;50.094;8.748;2022-08-19T02:01:16;100035.91;;;21.89;63.01
72558;BME280;60583;50.094;8.748;2022-08-19T02:03:41;100042.66;;;21.92;62.86
72558;BME280;60583;50.094;8.748;2022-08-19T02:06:07;100041.28;;;21.94;62.94
72558;BME280;60583;50.094;8.748;2022-08-19T02:08:35;100024.75;;;21.91;62.68
72558;BME280;60583;50.094;8.748;2022-08-19T02:11:01;100024.22;;;21.89;62.88
72558;BME280;60583;50.094;8.748;2022-08-19T02:13:27;100038.28;;;21.96;62.90
72558;BME280;60583;50.094;8.748;2022-08-19T02:15:53;100035.31;;;21.97;62.80
72558;BME280;60583;50.094;8.748;2022-08-19T02:18:18;100048.28;;;22.00;62.85
72558;BME280;60583;50.094;8.748;2022-08-19T02:20:44;100054.06;;;21.94;62.87
72558;BME280;60583;50.094;8.748;2022-08-19T02:23:11;100071.41;;;21.98;63.10
72558;BME280;60583;50.094;8.748;2022-08-19T02:25:38;100070.84;;;22.01;62.80
72558;BME280;60583;50.094;8.748;2022-08-19T02:28:04;100074.63;;;22.05;62.73
72558;BME280;60583;50.094;8.748;2022-08-19T02:30:29;100069.47;;;22.03;62.87
72558;BME280;60583;50.094;8.748;2022-08-19T02:32:55;100077.91;;;22.02;62.84
72558;BME280;60583;50.094;8.748;2022-08-19T02:35:20;100068.63;;;22.08;62.75
72558;BME280;60583;50.094;8.748;2022-08-19T02:37:46;100070.31;;;21.99;62.85
72558;BME280;60583;50.094;8.748;2022-08-19T02:40:31;100066.22;;;22.01;63.00
72558;BME280;60583;50.094;8.748;2022-08-19T02:43:00;100071.41;;;21.98;63.15
72558;BME280;60583;50.094;8.748;2022-08-19T02:45:26;100069.75;;;22.02;63.31
72558;BME280;60583;50.094;8.748;2022-08-19T02:47:52;100069.78;;;21.97;63.39
72558;BME280;60583;50.094;8.748;2022-08-19T02:50:18;100071.94;;;22.00;63.11
72558;BME280;60583;50.094;8.748;2022-08-19T02:52:43;100061.88;;;22.00;63.33
72558;BME280;60583;50.094;8.748;2022-08-19T02:55:09;100075.75;;;21.99;63.06
72558;BME280;60583;50.094;8.748;2022-08-19T02:57:34;100071.44;;;21.93;63.45
72558;BME280;60583;50.094;8.748;2022-08-19T03:00:00;100075.25;;;21.92;63.52
72558;BME280;60583;50.094;8.748;2022-08-19T03:02:28;100086.16;;;21.87;63.86
72558;BME280;60583;50.094;8.748;2022-08-19T03:04:55;100069.84;;;21.82;64.18
72558;BME280;60583;50.094;8.748;2022-08-19T03:07:21;100055.47;;;21.81;64.14
72558;BME280;60583;50.094;8.748;2022-08-19T03:09:46;100055.47;;;21.76;64.38
72558;BME280;60583;50.094;8.748;2022-08-19T03:12:11;100062.78;;;21.81;64.20
72558;BME280;60583;50.094;8.748;2022-08-19T03:14:37;100067.41;;;21.80;64.27
72558;BME280;60583;50.094;8.748;2022-08-19T03:17:03;100067.13;;;21.82;64.18
72558;BME280;60583;50.094;8.748;2022-08-19T03:19:29;100079.34;;;21.84;64.33
72558;BME280;60583;50.094;8.748;2022-08-19T03:21:55;100074.75;;;21.80;64.51
72558;BME280;60583;50.094;8.748;2022-08-19T03:24:20;100079.38;;;21.79;64.51
72558;BME280;60583;50.094;8.748;2022-08-19T03:26:52;100064.75;;;21.70;64.85
72558;BME280;60583;50.094;8.748;2022-08-19T03:29:19;100072.63;;;21.72;64.97
72558;BME280;60583;50.094;8.748;2022-08-19T03:31:44;100082.16;;;21.64;65.47
72558;BME280;60583;50.094;8.748;2022-08-19T03:34:16;100082.16;;;21.64;65.38
72558;BME280;60583;50.094;8.748;2022-08-19T03:36:43;100084.34;;;21.62;65.67
72558;BME280;60583;50.094;8.748;2022-08-19T03:39:09;100082.97;;;21.65;65.65
72558;BME280;60583;50.094;8.748;2022-08-19T03:41:40;100073.19;;;21.63;65.62
72558;BME280;60583;50.094;8.748;2022-08-19T03:44:06;100075.91;;;21.63;65.48
72558;BME280;60583;50.094;8.748;2022-08-19T03:46:33;100076.97;;;21.68;65.32
72558;BME280;60583;50.094;8.748;2022-08-19T03:49:02;100079.69;;;21.62;65.75
72558;BME280;60583;50.094;8.748;2022-08-19T03:51:38;100077.00;;;21.57;65.85
72558;BME280;60583;50.094;8.748;2022-08-19T03:54:07;100071.59;;;21.52;66.25
72558;BME280;60583;50.094;8.748;2022-08-19T03:56:37;100072.19;;;21.49;66.33
72558;BME280;60583;50.094;8.748;2022-08-19T03:59:04;100079.78;;;21.47;66.49
72558;BME280;60583;50.094;8.748;2022-08-19T04:01:30;100084.13;;;21.48;66.50
72558;BME280;60583;50.094;8.748;2022-08-19T04:03:57;100083.03;;;21.49;66.48
72558;BME280;60583;50.094;8.748;2022-08-19T04:06:25;100076.50;;;21.50;66.47
72558;BME280;60583;50.094;8.748;2022-08-19T04:08:52;100087.13;;;21.47;66.79
72558;BME280;60583;50.094;8.748;2022-08-19T04:11:26;100086.31;;;21.46;66.84
72558;BME280;60583;50.094;8.748;2022-08-19T04:13:53;100093.59;;;21.51;66.89
72558;BME280;60583;50.094;8.748;2022-08-19T04:16:20;100089.81;;;21.52;66.66
72558;BME280;60583;50.094;8.748;2022-08-19T04:18:47;100096.03;;;21.52;66.65
72558;BME280;60583;50.094;8.748;2022-08-19T04:21:22;100096.63;;;21.49;66.92
72558;BME280;60583;50.094;8.748;2022-08-19T04:23:47;100094.16;;;21.48;66.88
72558;BME280;60583;50.094;8.748;2022-08-19T04:26:20;100089.84;;;21.47;66.95
72558;BME280;60583;50.094;8.748;2022-08-19T04:28:46;100087.69;;;21.39;67.22
72558;BME280;60583;50.094;8.748;2022-08-19T04:31:14;100088.19;;;21.46;67.00
72558;BME280;60583;50.094;8.748;2022-08-19T04:33:40;100084.66;;;21.45;66.82
72558;BME280;60583;50.094;8.748;2022-08-19T04:36:06;100083.59;;;21.41;66.85
72558;BME280;60583;50.094;8.748;2022-08-19T04:38:31;100088.50;;;21.44;66.83
72558;BME280;60583;50.094;8.748;2022-08-19T04:40:56;100099.88;;;21.41;66.84
72558;BME280;60583;50.094;8.748;2022-08-19T04:43:40;100108.00;;;21.46;66.62
72558;BME280;60583;50.094;8.748;2022-08-19T04:46:11;100105.00;;;21.48;66.70
72558;BME280;60583;50.094;8.748;2022-08-19T04:48:38;100103.41;;;21.42;66.74
72558;BME280;60583;50.094;8.748;2022-08-19T04:51:08;100107.75;;;21.38;66.93
72558;BME280;60583;50.094;8.748;2022-08-19T04:53:35;100092.81;;;21.40;66.45
72558;BME280;60583;50.094;8.748;2022-08-19T04:56:05;100101.50;;;21.37;67.08
72558;BME280;60583;50.094;8.748;2022-08-19T04:58:32;100105.56;;;21.40;66.91
72558;BME280;60583;50.094;8.748;2022-08-19T05:00:57;100107.50;;;21.39;66.93
72558;BME280;60583;50.094;8.748;2022-08-19T05:03:25;100105.03;;;21.38;66.94
72558;BME280;60583;50.094;8.748;2022-08-19T05:05:51;100104.50;;;21.36;67.05
72558;BME280;60583;50.094;8.748;2022-08-19T05:08:19;100106.41;;;21.35;66.91
72558;BME280;60583;50.094;8.748;2022-08-19T05:10:46;100106.13;;;21.42;66.71
72558;BME280;60583;50.094;8.748;2022-08-19T05:13:12;100100.41;;;21.43;66.65
72558;BME280;60583;50.094;8.748;2022-08-19T05:15:38;100092.28;;;21.38;66.61
72558;BME280;60583;50.094;8.748;2022-08-19T05:18:03;100099.88;;;21.41;66.66
72558;BME280;60583;50.094;8.748;2022-08-19T05:20:47;100102.06;;;21.39;66.56
72558;BME280;60583;50.094;8.748;2022-08-19T05:23:31;100096.66;;;21.39;66.32
72558;BME280;60583;50.094;8.748;2022-08-19T05:25:56;100106.13;;;21.42;66.43
72558;BME280;60583;50.094;8.748;2022-08-19T05:28:22;100105.00;;;21.48;66.40
72558;BME280;60583;50.094;8.748;2022-08-19T05:30:47;100109.59;;;21.52;66.13
72558;BME280;60583;50.094;8.748;2022-08-19T05:33:13;100106.34;;;21.55;66.19
72558;BME280;60583;50.094;8.748;2022-08-19T05:35:39;100109.06;;;21.50;66.35
72558;BME280;60583;50.094;8.748;2022-08-19T05:38:07;100110.41;;;21.53;66.30
72558;BME280;60583;50.094;8.748;2022-08-19T05:40:38;100118.56;;;21.53;66.41
72558;BME280;60583;50.094;8.748;2022-08-19T05:43:05;100122.63;;;21.55;66.39
72558;BME280;60583;50.094;8.748;2022-08-19T05:45:32;100117.19;;;21.55;66.29
72558;BME280;60583;50.094;8.748;2022-08-19T05:47:57;100104.44;;;21.56;66.21
72558;BME280;60583;50.094;8.748;2022-08-19T05:50:24;100111.50;;;21.62;66.02
72558;BME280;60583;50.094;8.748;2022-08-19T05:52:52;100112.25;;;21.68;65.86
72558;BME280;60583;50.094;8.748;2022-08-19T05:55:17;100109.81;;;21.71;65.68
72558;BME280;60583;50.094;8.748;2022-08-19T05:57:45;100118.97;;;21.80;65.76
72558;BME280;60583;50.094;8.748;2022-08-19T06:00:11;100131.75;;;21.85;65.31
72558;BME280;60583;50.094;8.748;2022-08-19T06:02:38;100129.59;;;21.87;65.13
72558;BME280;60583;50.094;8.748;2022-08-19T06:05:05;100135.81;;;21.92;65.08
72558;BME280;60583;50.094;8.748;2022-08-19T06:07:35;100139.03;;;21.99;64.83
72558;BME280;60583;50.094;8.748;2022-08-19T06:10:01;100141.44;;;22.06;64.52
72558;BME280;60583;50.094;8.748;2022-08-19T06:12:28;100136.50;;;22.13;64.27
72558;BME280;60583;50.094;8.748;2022-08-19T06:14:54;100141.84;;;22.28;64.23
72558;BME280;60583;50.094;8.748;2022-08-19T06:17:20;100137.72;;;22.36;63.22
72558;BME280;60583;50.094;8.748;2022-08-19T06:19:47;100155.84;;;22.50;62.75
72558;BME280;60583;50.094;8.748;2022-08-19T06:22:15;100156.34;;;22.62;62.37
72558;BME280;60583;50.094;8.748;2022-08-19T06:24:40;100165.28;;;22.68;62.44
72558;BME280;60583;50.094;8.748;2022-08-19T06:27:06;100175.22;;;22.82;61.94
72558;BME280;60583;50.094;8.748;2022-08-19T06:29:31;100171.28;;;22.94;61.75
72558;BME280;60583;50.094;8.748;2022-08-19T06:31:59;100172.41;;;22.93;61.14
72558;BME280;60583;50.094;8.748;2022-08-19T06:34:25;100175.38;;;22.91;61.26
72558;BME280;60583;50.094;8.748;2022-08-19T06:36:54;100175.69;;;22.90;61.00
72558;BME280;60583;50.094;8.748;2022-08-19T06:39:25;100191.31;;;23.08;61.27
72558;BME280;60583;50.094;8.748;2022-08-19T06:41:53;100197.28;;;23.10;60.30
72558;BME280;60583;50.094;8.748;2022-08-19T06:44:21;100194.50;;;23.15;60.69
72558;BME280;60583;50.094;8.748;2022-08-19T06:46:47;100200.91;;;23.29;60.20
72558;BME280;60583;50.094;8.748;2022-08-19T06:49:14;100192.41;;;23.40;59.53
72558;BME280;60583;50.094;8.748;2022-08-19T06:51:45;100187.00;;;23.59;59.35
72558;BME280;60583;50.094;8.748;2022-08-19T06:54:12;100183.84;;;23.76;58.79
72558;BME280;60583;50.094;8.748;2022-08-19T06:56:37;100194.03;;;23.89;58.39
72558;BME280;60583;50.094;8.748;2022-08-19T06:59:09;100209.06;;;23.86;58.40
72558;BME280;60583;50.094;8.748;2022-08-19T07:01:40;100201.78;;;24.00;58.08
72558;BME280;60583;50.094;8.748;2022-08-19T07:04:07;100189.75;;;24.06;58.11
72558;BME280;60583;50.094;8.748;2022-08-19T07:06:34;100194.13;;;24.26;57.02
72558;BME280;60583;50.094;8.748;2022-08-19T07:08:59;100193.19;;;24.36;56.77
72558;BME280;60583;50.094;8.748;2022-08-19T07:11:25;100198.78;;;24.26;56.36
72558;BME280;60583;50.094;8.748;2022-08-19T07:13:51;100206.50;;;24.37;56.22
72558;BME280;60583;50.094;8.748;2022-08-19T07:16:18;100199.22;;;24.51;56.68
72558;BME280;60583;50.094;8.748;2022-08-19T07:18:50;100199.13;;;24.75;55.52
72558;BME280;60583;50.094;8.748;2022-08-19T07:21:21;100206.53;;;24.74;55.54
72558;BME280;60583;50.094;8.748;2022-08-19T07:23:48;100210.31;;;24.79;55.62
72558;BME280;60583;50.094;8.748;2022-08-19T07:26:20;100213.88;;;24.93;54.62
72558;BME280;60583;50.094;8.748;2022-08-19T07:28:47;100212.41;;;25.00;54.83
72558;BME280;60583;50.094;8.748;2022-08-19T07:31:15;100214.88;;;25.15;54.25
72558;BME280;60583;50.094;8.748;2022-08-19T07:33:44;100216.03;;;25.28;53.70
72558;BME280;60583;50.094;8.748;2022-08-19T07:36:12;100213.19;;;25.19;53.60
72558;BME280;60583;50.094;8.748;2022-08-19T07:38:42;100217.06;;;25.32;53.96
72558;BME280;60583;50.094;8.748;2022-08-19T07:41:18;100209.66;;;25.00;53.79
72558;BME280;60583;50.094;8.748;2022-08-19T07:43:44;100211.06;;;24.98;54.02
72558;BME280;60583;50.094;8.748;2022-08-19T07:46:10;100220.16;;;24.93;54.19
72558;BME280;60583;50.094;8.748;2022-08-19T07:48:35;100214.69;;;24.93;53.93
72558;BME280;60583;50.094;8.748;2022-08-19T07:51:04;100215.66;;;25.02;54.02
72558;BME280;60583;50.094;8.748;2022-08-19T07:53:31;100211.31;;;25.01;53.95
72558;BME280;60583;50.094;8.748;2022-08-19T07:55:58;100214.13;;;24.96;54.30
72558;BME280;60583;50.094;8.748;2022-08-19T07:58:35;100221.28;;;25.24;53.49
72558;BME280;60583;50.094;8.748;2022-08-19T08:01:03;100219.88;;;25.41;52.78
72558;BME280;60583;50.094;8.748;2022-08-19T08:03:29;100229.97;;;25.59;52.20
72558;BME280;60583;50.094;8.748;2022-08-19T08:06:14;100232.13;;;25.62;51.78
72558;BME280;60583;50.094;8.748;2022-08-19T08:08:59;100225.22;;;25.64;51.69
72558;BME280;60583;50.094;8.748;2022-08-19T08:11:44;100221.06;;;25.53;51.69
72558;BME280;60583;50.094;8.748;2022-08-19T08:14:16;100229.50;;;25.97;51.04
72558;BME280;60583;50.094;8.748;2022-08-19T08:16:41;100226.38;;;26.18;50.29
72558;BME280;60583;50.094;8.748;2022-08-19T08:19:09;100221.38;;;26.33;49.43
72558;BME280;60583;50.094;8.748;2022-08-19T08:21:35;100224.00;;;26.38;49.22
72558;BME280;60583;50.094;8.748;2022-08-19T08:24:00;100218.97;;;26.18;49.73
72558;BME280;60583;50.094;8.748;2022-08-19T08:26:26;100220.66;;;26.41;48.73
72558;BME280;60583;50.094;8.748;2022-08-19T08:28:52;100226.75;;;26.38;48.70
72558;BME280;60583;50.094;8.748;2022-08-19T08:31:18;100226.47;;;26.26;48.82
72558;BME280;60583;50.094;8.748;2022-08-19T08:33:44;100224.88;;;26.12;49.43
72558;BME280;60583;50.094;8.748;2022-08-19T08:36:11;100231.41;;;25.83;50.03
72558;BME280;60583;50.094;8.748;2022-08-19T08:38:40;100231.13;;;25.85;50.06
72558;BME280;60583;50.094;8.748;2022-08-19T08:43:55;100218.47;;;26.16;49.28
72558;BME280;60583;50.094;8.748;2022-08-19T08:46:49;100214.47;;;26.36;48.36
72558;BME280;60583;50.094;8.748;2022-08-19T08:49:31;100225.31;;;26.41;48.58
72558;BME280;60583;50.094;8.748;2022-08-19T08:52:03;100225.03;;;26.42;48.17
72558;BME280;60583;50.094;8.748;2022-08-19T08:54:33;100219.72;;;26.46;48.40
72558;BME280;60583;50.094;8.748;2022-08-19T08:56:59;100209.22;;;26.39;47.75
72558;BME280;60583;50.094;8.748;2022-08-19T08:59:35;100207.09;;;26.36;47.69
72558;BME280;60583;50.094;8.748;2022-08-19T09:02:01;100210.44;;;26.33;47.22
72558;BME280;60583;50.094;8.748;2022-08-19T09:04:27;100198.19;;;26.31;47.64
72558;BME280;60583;50.094;8.748;2022-08-19T09:09:43;100215.13;;;26.19;47.78
72558;BME280;60583;50.094;8.748;2022-08-19T09:12:47;100208.84;;;26.19;47.88
72558;BME280;60583;50.094;8.748;2022-08-19T09:15:22;100206.00;;;26.24;47.45
72558;BME280;60583;50.094;8.748;2022-08-19T09:17:52;100202.97;;;26.25;47.41
72558;BME280;60583;50.094;8.748;2022-08-19T09:20:23;100204.59;;;26.26;47.37
72558;BME280;60583;50.094;8.748;2022-08-19T09:22:48;100203.53;;;26.49;46.76
72558;BME280;60583;50.094;8.748;2022-08-19T09:25:20;100202.97;;;26.97;45.84
72558;BME280;60583;50.094;8.748;2022-08-19T09:27:49;100207.50;;;27.23;45.02
72558;BME280;60583;50.094;8.748;2022-08-19T09:30:24;100205.47;;;27.60;44.19
72558;BME280;60583;50.094;8.748;2022-08-19T09:32:50;100199.41;;;27.71;43.73
72558;BME280;60583;50.094;8.748;2022-08-19T09:35:18;100198.59;;;28.19;42.46
72558;BME280;60583;50.094;8.748;2022-08-19T09:37:44;100197.22;;;27.99;42.74
72558;BME280;60583;50.094;8.748;2022-08-19T09:40:10;100199.69;;;28.01;42.11
72558;BME280;60583;50.094;8.748;2022-08-19T09:42:36;100198.13;;;28.17;42.12
72558;BME280;60583;50.094;8.748;2022-08-19T09:45:02;100184.75;;;28.50;41.96
72558;BME280;60583;50.094;8.748;2022-08-19T09:47:28;100197.72;;;28.75;41.14
72558;BME280;60583;50.094;8.748;2022-08-19T09:49:54;100194.91;;;29.00;40.22
72558;BME280;60583;50.094;8.748;2022-08-19T09:52:20;100197.31;;;29.36;39.75
72558;BME280;60583;50.094;8.748;2022-08-19T09:54:45;100193.28;;;29.80;38.78
72558;BME280;60583;50.094;8.748;2022-08-19T09:57:11;100197.75;;;29.47;39.24
72558;BME280;60583;50.094;8.748;2022-08-19T09:59:36;100195.88;;;29.22;40.12
72558;BME280;60583;50.094;8.748;2022-08-19T10:02:02;100198.66;;;29.68;39.55
72558;BME280;60583;50.094;8.748;2022-08-19T10:04:27;100199.91;;;29.79;38.73
72558;BME280;60583;50.094;8.748;2022-08-19T10:07:14;100203.53;;;29.54;39.76
72558;BME280;60583;50.094;8.748;2022-08-19T10:09:39;100202.53;;;29.67;39.64
72558;BME280;60583;50.094;8.748;2022-08-19T10:12:06;100193.44;;;30.13;38.75
72558;BME280;60583;50.094;8.748;2022-08-19T10:14:32;100187.97;;;30.96;37.03
72558;BME280;60583;50.094;8.748;2022-08-19T10:16:58;100196.66;;;31.63;35.37
72558;BME280;60583;50.094;8.748;2022-08-19T10:19:25;100188.94;;;32.29;33.94
72558;BME280;60583;50.094;8.748;2022-08-19T10:21:51;100196.19;;;32.34;33.80
72558;BME280;60583;50.094;8.748;2022-08-19T10:24:16;100195.63;;;32.16;33.38
72558;BME280;60583;50.094;8.748;2022-08-19T10:26:41;100190.09;;;31.68;34.82
72558;BME280;60583;50.094;8.748;2022-08-19T10:29:12;100195.63;;;30.90;35.36
72558;BME280;60583;50.094;8.748;2022-08-19T10:31:41;100190.56;;;31.94;33.98
72558;BME280;60583;50.094;8.748;2022-08-19T10:34:07;100175.34;;;32.36;33.23
72558;BME280;60583;50.094;8.748;2022-08-19T10:36:35;100179.34;;;31.42;35.21
72558;BME280;60583;50.094;8.748;2022-08-19T10:39:04;100185.56;;;30.53;36.58
72558;BME280;60583;50.094;8.748;2022-08-19T10:41:35;100181.13;;;30.40;36.80
72558;BME280;60583;50.094;8.748;2022-08-19T10:44:04;100186.88;;;29.97;37.41
72558;BME280;60583;50.094;8.748;2022-08-19T10:46:32;100182.19;;;31.21;35.23
72558;BME280;60583;50.094;8.748;2022-08-19T10:48:59;100177.00;;;32.13;34.08
72558;BME280;60583;50.094;8.748;2022-08-19T10:51:25;100179.19;;;33.42;31.73
72558;BME280;60583;50.094;8.748;2022-08-19T10:54:09;100167.94;;;33.82;30.31
72558;BME280;60583;50.094;8.748;2022-08-19T10:56:34;100171.59;;;34.37;29.89
72558;BME280;60583;50.094;8.748;2022-08-19T11:01:47;100156.50;;;32.94;31.21
72558;BME280;60583;50.094;8.748;2022-08-19T11:04:13;100160.22;;;32.06;32.52
72558;BME280;60583;50.094;8.748;2022-08-19T11:06:42;100159.00;;;31.34;33.43
72558;BME280;60583;50.094;8.748;2022-08-19T11:09:09;100148.03;;;31.02;34.41
72558;BME280;60583;50.094;8.748;2022-08-19T11:11:36;100148.69;;;30.45;36.30
72558;BME280;60583;50.094;8.748;2022-08-19T11:14:06;100148.59;;;30.12;36.98
72558;BME280;60583;50.094;8.748;2022-08-19T11:16:32;100137.78;;;31.95;33.66
72558;BME280;60583;50.094;8.748;2022-08-19T11:18:59;100137.81;;;33.03;31.35
72558;BME280;60583;50.094;8.748;2022-08-19T11:21:33;100128.81;;;33.84;29.24
72558;BME280;60583;50.094;8.748;2022-08-19T11:24:09;100114.34;;;34.44;28.64
72558;BME280;60583;50.094;8.748;2022-08-19T11:26:36;100116.31;;;33.90;29.62
72558;BME280;60583;50.094;8.748;2022-08-19T11:29:03;100116.25;;;33.24;30.80
72558;BME280;60583;50.094;8.748;2022-08-19T11:31:32;100115.47;;;34.21;28.77
72558;BME280;60583;50.094;8.748;2022-08-19T11:34:00;100104.44;;;35.23;27.09
72558;BME280;60583;50.094;8.748;2022-08-19T11:36:27;100103.97;;;35.67;25.58
72558;BME280;60583;50.094;8.748;2022-08-19T11:38:53;100108.25;;;35.38;25.88
72558;BME280;60583;50.094;8.748;2022-08-19T11:41:20;100104.56;;;35.79;25.96
72558;BME280;60583;50.094;8.748;2022-08-19T11:43:48;100109.22;;;36.58;25.40
72558;BME280;60583;50.094;8.748;2022-08-19T11:46:14;100107.91;;;36.18;25.71
72558;BME280;60583;50.094;8.748;2022-08-19T11:48:40;100102.16;;;35.06;27.05
72558;BME280;60583;50.094;8.748;2022-08-19T11:51:09;100101.19;;;33.37;29.56
72558;BME280;60583;50.094;8.748;2022-08-19T11:53:36;100095.16;;;32.72;30.99
72558;BME280;60583;50.094;8.748;2022-08-19T11:56:03;100108.38;;;31.63;32.67
72558;BME280;60583;50.094;8.748;2022-08-19T11:58:29;100112.75;;;31.52;33.12
72558;BME280;60583;50.094;8.748;2022-08-19T12:00:54;100118.63;;;30.93;33.40
72558;BME280;60583;50.094;8.748;2022-08-19T12:03:20;100098.78;;;30.47;33.98
72558;BME280;60583;50.094;8.748;2022-08-19T12:05:46;100105.25;;;31.40;32.76
72558;BME280;60583;50.094;8.748;2022-08-19T12:08:12;100098.31;;;32.19;31.40
72558;BME280;60583;50.094;8.748;2022-08-19T12:10:41;100104.31;;;33.20;29.08
72558;BME280;60583;50.094;8.748;2022-08-19T12:13:08;100100.28;;;32.46;30.38
72558;BME280;60583;50.094;8.748;2022-08-19T12:15:38;100096.75;;;31.70;31.98
72558;BME280;60583;50.094;8.748;2022-08-19T12:18:06;100095.34;;;31.03;32.60
72558;BME280;60583;50.094;8.748;2022-08-19T12:20:38;100097.91;;;30.55;33.67
72558;BME280;60583;50.094;8.748;2022-08-19T12:23:05;100103.16;;;30.27;34.29
72558;BME280;60583;50.094;8.748;2022-08-19T12:25:32;100102.16;;;29.90;34.84
72558;BME280;60583;50.094;8.748;2022-08-19T12:27:58;100100.66;;;29.93;34.59
72558;BME280;60583;50.094;8.748;2022-08-19T12:30:24;100093.31;;;31.36;32.06
72558;BME280;60583;50.094;8.748;2022-08-19T12:32:49;100092.63;;;32.40;30.34
72558;BME280;60583;50.094;8.748;2022-08-19T12:35:16;100082.28;;;33.89;27.81
72558;BME280;60583;50.094;8.748;2022-08-19T12:37:42;100076.91;;;34.31;26.67
72558;BME280;60583;50.094;8.748;2022-08-19T12:40:10;100068.50;;;34.47;26.66
72558;BME280;60583;50.094;8.748;2022-08-19T12:42:38;100076.53;;;34.14;26.97
72558;BME280;60583;50.094;8.748;2022-08-19T12:45:11;100079.94;;;32.94;28.19
72558;BME280;60583;50.094;8.748;2022-08-19T12:47:37;100080.81;;;32.98;28.17
72558;BME280;60583;50.094;8.748;2022-08-19T12:50:03;100075.75;;;33.47;27.73
72558;BME280;60583;50.094;8.748;2022-08-19T12:52:32;100080.31;;;33.24;27.86
72558;BME280;60583;50.094;8.748;2022-08-19T12:54:58;100075.69;;;32.69;28.10
72558;BME280;60583;50.094;8.748;2022-08-19T12:57:25;100073.13;;;32.21;29.18
72558;BME280;60583;50.094;8.748;2022-08-19T12:59:54;100070.03;;;31.98;29.30
72558;BME280;60583;50.094;8.748;2022-08-19T13:02:19;100082.75;;;31.63;29.40